Time;durP1;ratioP1;P1;durP2;ratioP2;P2;SDS_P1;SDS_P2;PMS_P1;PMS_P2;Temp;Humidity;BMP_temperature;BMP_pressure;BME280_temperature;BME280_humidity;BME280_pressure;Samples;Min_cycle;Max_cycle;Signal;HPM_P1;HPM_P2
2023/04/13 00:02:03;;;;;;;0.10;0.10;;;;;;;9.01;68.96;99353.53;4987494;28;20433;-84
2023/04/13 00:04:30;;;;;;;0.10;0.10;;;;;;;8.89;69.29;99378.59;4984354;28;20145;-83
2023/04/13 00:07:02;;;;;;;0.10;0.10;;;;;;;9.09;69.32;99355.03;4986780;28;20515;-84
2023/04/13 00:09:29;;;;;;;0.10;0.10;;;;;;;9.17;69.05;99355.59;4982795;28;20034;-84
2023/04/13 00:11:57;;;;;;;0.10;0.10;;;;;;;9.14;69.46;99358.34;4976408;28;20023;-84
2023/04/13 00:14:32;;;;;;;0.10;0.10;;;;;;;9.15;69.68;99350.38;4981661;28;20149;-85
2023/04/13 00:16:59;;;;;;;0.10;0.10;;;;;;;9.09;70.34;99358.53;4990697;28;20485;-84
2023/04/13 00:19:25;;;;;;;0.10;0.10;;;;;;;8.98;69.81;99353.63;4993131;28;20034;-84
2023/04/13 00:21:52;;;;;;;0.10;0.10;;;;;;;9.05;70.00;99355.13;4992469;28;20113;-84
2023/04/13 00:24:19;;;;;;;0.17;0.17;;;;;;;9.03;69.71;99357.00;4985769;28;20034;-85
2023/04/13 00:26:45;;;;;;;0.10;0.10;;;;;;;9.00;69.86;99343.88;4988881;28;20030;-84
2023/04/13 00:29:12;;;;;;;0.10;0.10;;;;;;;8.93;69.75;99354.75;4989432;28;20021;-84
2023/04/13 00:31:38;;;;;;;0.10;0.10;;;;;;;8.94;69.71;99352.03;4989746;28;20030;-84
2023/04/13 00:34:05;;;;;;;0.00;0.00;;;;;;;8.87;69.94;99358.47;4983858;28;20022;-83
2023/04/13 00:36:32;;;;;;;0.10;0.10;;;;;;;8.94;69.50;99352.03;4993762;28;20057;-84
2023/04/13 00:38:58;;;;;;;0.10;0.10;;;;;;;8.95;69.76;99351.13;4991473;28;20417;-84
2023/04/13 00:41:25;;;;;;;0.10;0.10;;;;;;;9.00;70.14;99351.81;4991396;28;20368;-85
2023/04/13 00:43:52;;;;;;;0.10;0.10;;;;;;;8.96;70.13;99358.13;4995095;28;20361;-84
2023/04/13 00:46:19;;;;;;;0.15;0.15;;;;;;;9.01;69.49;99355.28;5001369;28;20034;-84
2023/04/13 00:48:47;;;;;;;0.10;0.10;;;;;;;8.94;70.34;99352.03;4997700;28;20026;-82
2023/04/13 00:51:14;;;;;;;0.20;0.20;;;;;;;9.01;69.90;99358.81;4994639;28;20505;-84
2023/04/13 00:53:42;;;;;;;0.40;0.40;;;;;;;9.05;70.18;99347.22;4999488;28;20037;-84
2023/04/13 00:56:09;;;;;;;0.10;0.10;;;;;;;9.02;70.25;99354.38;4992486;28;20027;-83
2023/04/13 00:58:36;;;;;;;0.10;0.10;;;;;;;9.11;69.59;99361.09;4997060;28;20073;-84
2023/04/13 01:01:03;;;;;;;0.10;0.10;;;;;;;9.15;69.50;99354.81;4992921;28;20475;-83
2023/04/13 01:03:29;;;;;;;0.10;0.10;;;;;;;9.05;70.55;99367.50;4996369;28;20030;-84
2023/04/13 01:08:52;;;;;;;0.10;0.10;;;;;;;9.23;70.67;99376.50;5089230;27;20397;-82
2023/04/13 01:11:26;;;;;;;0.10;0.10;;;;;;;9.21;70.42;99365.13;5090128;28;20501;-83
2023/04/13 01:14:08;;;;;;;0.10;0.10;;;;;;;9.27;70.41;99371.94;5088655;28;21792;-82
2023/04/13 01:16:40;;;;;;;0.10;0.10;;;;;;;9.15;70.38;99376.78;5086385;28;20064;-81
2023/04/13 01:19:17;;;;;;;0.10;0.10;;;;;;;9.11;70.85;99382.25;5087447;28;20063;-84
2023/04/13 01:21:43;;;;;;;0.10;0.10;;;;;;;8.98;71.32;99385.34;5090079;28;20042;-84
2023/04/13 01:24:31;;;;;;;0.10;0.10;;;;;;;9.11;71.64;99380.47;5089265;28;20044;-85
2023/04/13 01:27:11;;;;;;;0.10;0.10;;;;;;;9.17;71.46;99398.75;5082818;28;20073;-82
2023/04/13 01:29:39;;;;;;;0.10;0.10;;;;;;;9.05;71.18;99400.03;5084675;28;20409;-83
2023/04/13 01:32:07;;;;;;;0.10;0.10;;;;;;;9.10;70.97;99404.28;5083838;28;20028;-85
2023/04/13 01:34:34;;;;;;;0.90;0.90;;;;;;;9.03;70.72;99401.91;5083361;28;20097;-83
2023/04/13 01:37:05;;;;;;;0.10;0.10;;;;;;;9.02;70.71;99405.47;5089831;28;20020;-82
2023/04/13 01:39:32;;;;;;;0.20;0.20;;;;;;;9.01;70.37;99409.00;5091411;28;20036;-81
2023/04/13 01:41:59;;;;;;;0.10;0.10;;;;;;;8.99;69.97;99408.19;5086713;28;20036;-84
2023/04/13 01:44:31;;;;;;;0.10;0.10;;;;;;;8.95;69.82;99421.56;5097232;28;20035;-84
2023/04/13 01:47:14;;;;;;;0.10;0.10;;;;;;;8.98;70.01;99432.03;5088659;28;20060;-84
2023/04/13 01:49:46;;;;;;;0.10;0.10;;;;;;;8.94;70.25;99435.72;5095936;28;20043;-83
2023/04/13 01:52:14;;;;;;;0.10;0.10;;;;;;;8.97;69.59;99443.50;5096931;28;20039;-84
2023/04/13 01:54:44;;;;;;;0.10;0.10;;;;;;;8.95;70.13;99448.88;5088520;28;20055;-82
2023/04/13 01:57:13;;;;;;;0.10;0.10;;;;;;;8.99;69.74;99453.09;5087553;28;20411;-83
2023/04/13 01:59:39;;;;;;;0.10;0.10;;;;;;;8.96;70.11;99455.00;5089886;28;20537;-83
2023/04/13 02:02:05;;;;;;;0.10;0.10;;;;;;;8.96;69.53;99455.88;5086985;28;20389;-84
2023/04/13 02:04:32;;;;;;;0.10;0.10;;;;;;;8.97;70.03;99470.81;5088427;28;20027;-85
2023/04/13 02:06:59;;;;;;;0.10;0.10;;;;;;;8.89;69.94;99475.50;5086462;28;20064;-85
2023/04/13 02:09:27;;;;;;;0.10;0.10;;;;;;;8.89;69.18;99470.22;5087360;28;20040;-82
2023/04/13 02:11:54;;;;;;;0.10;0.10;;;;;;;8.81;68.97;99482.81;5086546;28;20028;-82
2023/04/13 02:14:20;;;;;;;1.38;1.38;;;;;;;8.80;69.18;99483.72;5089827;28;20024;-83
2023/04/13 02:16:46;;;;;;;0.10;0.10;;;;;;;8.77;69.64;99482.03;5085207;28;20081;-83
2023/04/13 02:19:12;;;;;;;0.10;0.10;;;;;;;8.73;69.04;99486.59;5080153;28;20028;-84
2023/04/13 02:21:40;;;;;;;0.10;0.10;;;;;;;8.71;69.62;99487.53;5071429;28;20029;-82
2023/04/13 02:24:07;;;;;;;0.10;0.10;;;;;;;8.66;69.43;99489.47;5082930;28;20525;-82
2023/04/13 02:26:36;;;;;;;0.08;0.08;;;;;;;8.62;69.01;99494.00;5078182;28;20032;-84
2023/04/13 02:29:02;;;;;;;0.10;0.10;;;;;;;8.58;69.04;99497.66;5073958;28;20032;-84
2023/04/13 02:31:30;;;;;;;0.10;0.10;;;;;;;8.54;69.50;99496.06;5081358;28;20024;-84
2023/04/13 02:33:57;;;;;;;0.08;0.08;;;;;;;8.48;69.21;99501.53;5073551;28;20031;-84
2023/04/13 02:36:23;;;;;;;0.10;0.10;;;;;;;8.46;69.31;99504.22;5073245;28;20032;-82
2023/04/13 02:38:50;;;;;;;0.10;0.10;;;;;;;8.45;69.81;99507.75;5068413;28;20029;-84
2023/04/13 02:41:21;;;;;;;0.20;0.20;;;;;;;8.47;69.74;99510.34;5073892;28;20059;-84
2023/04/13 02:43:49;;;;;;;0.10;0.10;;;;;;;8.45;69.55;99512.16;5069705;28;20050;-83
2023/04/13 02:46:15;;;;;;;0.10;0.10;;;;;;;8.51;70.18;99522.53;5073329;28;20096;-84
2023/04/13 02:48:41;;;;;;;0.10;0.10;;;;;;;8.51;70.20;99517.25;5074899;28;20055;-84
2023/04/13 02:51:07;;;;;;;0.10;0.10;;;;;;;8.52;69.73;99521.63;5072804;28;20405;-84
2023/04/13 02:53:34;;;;;;;1.38;1.38;;;;;;;8.54;69.46;99522.44;5071174;28;20039;-85
2023/04/13 02:56:01;;;;;;;0.10;0.10;;;;;;;8.61;69.58;99529.25;5068741;28;20032;-84
2023/04/13 02:58:31;;;;;;;0.10;0.10;;;;;;;8.63;69.77;99535.34;5075801;28;20021;-85
2023/04/13 03:00:57;;;;;;;0.10;0.10;;;;;;;8.63;69.63;99537.97;5072795;28;20161;-85
2023/04/13 03:03:23;;;;;;;0.10;0.10;;;;;;;8.67;70.09;99534.34;5077716;28;20021;-85
2023/04/13 03:05:51;;;;;;;0.47;0.47;;;;;;;8.67;69.83;99538.75;5084776;28;20041;-83
2023/04/13 03:08:17;;;;;;;0.10;0.10;;;;;;;8.74;70.02;99538.47;5084041;28;20497;-84
2023/04/13 03:10:44;;;;;;;0.10;0.10;;;;;;;8.79;69.88;99542.75;5074147;28;20063;-84
2023/04/13 03:13:10;;;;;;;0.10;0.10;;;;;;;8.86;70.02;99553.06;5083881;28;20032;-84
2023/04/13 03:15:36;;;;;;;0.10;0.10;;;;;;;8.90;70.11;99556.47;5082786;28;20040;-84
2023/04/13 03:18:03;;;;;;;0.10;0.10;;;;;;;8.92;70.26;99559.06;5077863;28;20020;-84
2023/04/13 03:20:29;;;;;;;0.10;0.10;;;;;;;8.96;70.02;99556.25;5080098;28;20028;-83
2023/04/13 03:22:57;;;;;;;0.10;0.10;;;;;;;8.98;69.62;99559.69;5077639;28;20080;-84
2023/04/13 03:25:23;;;;;;;1.67;1.02;;;;;;;8.86;69.90;99568.91;5078067;28;20401;-84
2023/04/13 03:27:50;;;;;;;0.10;0.10;;;;;;;8.90;70.36;99578.44;5078675;28;20111;-84
2023/04/13 03:30:17;;;;;;;0.10;0.10;;;;;;;8.90;70.27;99573.16;5076368;28;20042;-84
2023/04/13 03:32:43;;;;;;;0.10;0.10;;;;;;;8.88;70.33;99582.06;5076261;28;20044;-84
2023/04/13 03:35:10;;;;;;;0.10;0.10;;;;;;;8.94;69.96;99576.56;5074576;28;20103;-84
2023/04/13 03:37:41;;;;;;;0.10;0.10;;;;;;;8.95;69.55;99580.06;5074259;28;20067;-82
2023/04/13 03:40:09;;;;;;;0.10;0.10;;;;;;;8.93;69.31;99587.19;5074336;28;20489;-84
2023/04/13 03:42:36;;;;;;;0.10;0.10;;;;;;;8.92;69.08;99590.75;5075217;28;20447;-83
2023/04/13 03:45:04;;;;;;;0.08;0.08;;;;;;;8.93;69.42;99598.63;5085864;28;20039;-82
2023/04/13 03:47:30;;;;;;;0.10;0.10;;;;;;;8.97;68.88;99609.94;5081826;28;20051;-80
2023/04/13 03:49:57;;;;;;;0.13;0.13;;;;;;;9.00;68.47;99608.06;5072440;28;20088;-79
2023/04/13 03:52:23;;;;;;;0.10;0.10;;;;;;;9.07;68.42;99606.94;5079044;28;20048;-79
2023/04/13 03:54:49;;;;;;;0.10;0.10;;;;;;;9.04;67.68;99617.59;5071092;28;20111;-81
2023/04/13 03:57:15;;;;;;;0.10;0.10;;;;;;;9.12;67.82;99622.66;5070740;28;20459;-81
2023/04/13 03:59:41;;;;;;;0.10;0.10;;;;;;;9.27;67.11;99626.56;5073494;28;20028;-81
2023/04/13 04:02:07;;;;;;;0.10;0.10;;;;;;;9.32;66.83;99632.56;5070187;28;20043;-83
2023/04/13 04:04:34;;;;;;;0.10;0.10;;;;;;;9.37;66.80;99633.25;5071268;28;20043;-81
2023/04/13 04:07:00;;;;;;;0.10;0.10;;;;;;;9.37;66.77;99635.91;5062685;28;20051;-82
2023/04/13 04:09:26;;;;;;;0.10;0.10;;;;;;;9.46;66.27;99641.75;5072098;28;20028;-80
2023/04/13 04:11:52;;;;;;;0.10;0.10;;;;;;;9.41;66.24;99641.06;5071571;28;20107;-83
2023/04/13 04:14:19;;;;;;;0.10;0.10;;;;;;;9.46;66.28;99636.47;5073132;28;20037;-81
2023/04/13 04:16:45;;;;;;;0.13;0.13;;;;;;;9.51;65.86;99640.69;5070221;28;20044;-81
2023/04/13 04:19:11;;;;;;;0.10;0.10;;;;;;;9.48;65.19;99647.88;5071726;28;20054;-84
2023/04/13 04:21:37;;;;;;;0.10;0.10;;;;;;;9.52;65.35;99638.91;5068694;28;20028;-84
2023/04/13 04:24:07;;;;;;;0.10;0.10;;;;;;;9.46;64.57;99634.72;5070677;28;20035;-84
2023/04/13 04:26:36;;;;;;;0.10;0.10;;;;;;;9.48;64.45;99643.47;5070936;28;20058;-83
2023/04/13 04:29:02;;;;;;;0.30;0.30;;;;;;;9.44;64.00;99640.97;5072141;28;20016;-81
2023/04/13 04:31:33;;;;;;;0.10;0.10;;;;;;;9.48;64.08;99655.81;5072422;28;20223;-83
2023/04/13 04:34:01;;;;;;;0.10;0.10;;;;;;;9.52;64.36;99654.78;5065790;28;20021;-82
2023/04/13 04:36:27;;;;;;;0.10;0.10;;;;;;;9.47;63.71;99662.00;5069076;28;20037;-82
2023/04/13 04:38:56;;;;;;;0.10;0.10;;;;;;;9.42;64.21;99658.66;5068803;28;20387;-82
2023/04/13 04:41:24;;;;;;;0.00;0.00;;;;;;;9.35;65.01;99653.56;5072443;28;20146;-82
2023/04/13 04:43:50;;;;;;;0.15;0.15;;;;;;;9.31;65.29;99657.25;5071196;28;20375;-82
2023/04/13 04:46:16;;;;;;;0.10;0.10;;;;;;;9.26;65.71;99667.13;5068459;28;20024;-82
2023/04/13 04:48:46;;;;;;;0.10;0.10;;;;;;;9.16;65.90;99673.59;5070013;28;20031;-82
2023/04/13 04:51:12;;;;;;;0.10;0.10;;;;;;;9.09;66.01;99683.53;5070279;28;20028;-82
2023/04/13 04:53:38;;;;;;;0.10;0.10;;;;;;;9.03;66.62;99687.25;5068133;28;20448;-83
2023/04/13 04:56:05;;;;;;;0.10;0.10;;;;;;;9.01;66.96;99682.91;5070090;28;20055;-82
2023/04/13 04:58:31;;;;;;;0.10;0.10;;;;;;;8.91;66.85;99690.28;5071479;28;20035;-80
2023/04/13 05:00:57;;;;;;;0.10;0.10;;;;;;;8.85;66.62;99680.75;5068853;28;20043;-79
2023/04/13 05:03:23;;;;;;;0.10;0.10;;;;;;;8.86;66.82;99692.19;5071624;28;20035;-80
2023/04/13 05:05:50;;;;;;;0.10;0.10;;;;;;;8.88;67.37;99716.78;5070351;28;20036;-80
2023/04/13 05:08:16;;;;;;;0.10;0.10;;;;;;;8.79;68.12;99711.78;5069494;28;20032;-82
2023/04/13 05:10:46;;;;;;;0.10;0.10;;;;;;;8.87;67.81;99725.59;5069199;28;20501;-80
2023/04/13 05:13:13;;;;;;;0.10;0.10;;;;;;;8.84;69.07;99715.16;5072249;28;20040;-80
2023/04/13 05:15:39;;;;;;;0.10;0.10;;;;;;;8.84;68.45;99723.06;5067671;28;20413;-84
2023/04/13 05:18:05;;;;;;;0.10;0.10;;;;;;;8.84;68.94;99723.06;5069903;28;20028;-83
2023/04/13 05:20:33;;;;;;;0.10;0.10;;;;;;;8.85;69.46;99732.72;5067474;28;20493;-80
2023/04/13 05:23:00;;;;;;;0.10;0.10;;;;;;;8.93;69.58;99728.06;5070772;28;20032;-81
2023/04/13 05:25:26;;;;;;;0.15;0.15;;;;;;;8.94;69.33;99732.44;5068934;28;20082;-79
2023/04/13 05:27:52;;;;;;;0.20;0.20;;;;;;;8.94;69.68;99724.50;5067443;28;20025;-82
2023/04/13 05:30:18;;;;;;;0.20;0.20;;;;;;;8.79;70.31;99743.50;5065020;28;20044;-81
2023/04/13 05:32:44;;;;;;;0.10;0.10;;;;;;;8.88;70.08;99746.72;5070739;28;20060;-81
2023/04/13 05:35:11;;;;;;;0.10;0.10;;;;;;;8.85;69.90;99741.50;5069452;28;20139;-81
2023/04/13 05:37:39;;;;;;;0.10;0.10;;;;;;;8.86;69.82;99750.28;5070803;28;20031;-83
2023/04/13 05:40:10;;;;;;;0.10;0.10;;;;;;;8.96;69.30;99741.19;5072882;28;20413;-84
2023/04/13 05:42:37;;;;;;;0.20;0.20;;;;;;;8.98;69.85;99749.91;5075465;28;20044;-84
2023/04/13 05:45:08;;;;;;;0.10;0.10;;;;;;;9.00;70.02;99749.88;5070225;28;20649;-83
2023/04/13 05:47:34;;;;;;;0.10;0.10;;;;;;;9.05;69.69;99754.09;5070407;28;20115;-80
2023/04/13 05:50:00;;;;;;;0.10;0.10;;;;;;;9.15;70.17;99751.19;5073816;28;20029;-79
2023/04/13 05:52:26;;;;;;;0.10;0.10;;;;;;;9.22;70.34;99755.34;5071683;28;20039;-82
2023/04/13 05:54:53;;;;;;;0.10;0.10;;;;;;;9.23;70.34;99765.00;5072892;28;20113;-82
2023/04/13 05:57:20;;;;;;;0.10;0.10;;;;;;;9.29;69.67;99775.38;5075295;28;20031;-83
2023/04/13 05:59:46;;;;;;;0.10;0.10;;;;;;;9.30;70.04;99770.97;5076198;28;20025;-80
2023/04/13 06:02:12;;;;;;;0.10;0.10;;;;;;;9.22;70.27;99773.84;5075310;28;20029;-82
2023/04/13 06:04:38;;;;;;;0.10;0.10;;;;;;;9.28;70.55;99783.38;5074539;28;20494;-82
2023/04/13 06:07:05;;;;;;;0.10;0.10;;;;;;;9.30;70.61;99787.69;5073972;28;20154;-82
2023/04/13 06:09:31;;;;;;;0.10;0.10;;;;;;;9.33;70.32;99786.72;5073940;28;20032;-82
2023/04/13 06:11:58;;;;;;;0.10;0.10;;;;;;;9.43;70.73;99792.59;5075076;28;20408;-82
2023/04/13 06:14:24;;;;;;;0.10;0.10;;;;;;;9.39;71.24;99792.69;5076393;28;20028;-80
2023/04/13 06:16:51;;;;;;;0.10;0.10;;;;;;;9.45;71.27;99794.25;5077633;28;20111;-81
2023/04/13 06:19:17;;;;;;;0.10;0.10;;;;;;;9.60;70.11;99799.97;5076636;28;20060;-81
2023/04/13 06:21:43;;;;;;;0.10;0.10;;;;;;;9.67;70.74;99802.38;5071982;28;20028;-80
2023/04/13 06:24:09;;;;;;;0.10;0.10;;;;;;;9.70;70.87;99806.69;5074007;28;20021;-83
2023/04/13 06:26:36;;;;;;;0.10;0.10;;;;;;;9.52;70.57;99834.59;5071537;28;20033;-82
2023/04/13 06:29:02;;;;;;;0.10;0.10;;;;;;;9.58;70.24;99815.88;5074851;28;20033;-81
2023/04/13 06:31:28;;;;;;;0.10;0.10;;;;;;;9.60;71.01;99815.84;5070702;28;20048;-83
2023/04/13 06:33:54;;;;;;;0.10;0.10;;;;;;;9.65;70.67;99841.22;5074382;28;20036;-82
2023/04/13 06:36:20;;;;;;;0.10;0.10;;;;;;;9.59;70.75;99849.34;5078884;28;20029;-80
2023/04/13 06:38:46;;;;;;;0.10;0.10;;;;;;;9.46;70.22;99838.31;5080285;28;20032;-78
2023/04/13 06:41:13;;;;;;;0.20;0.20;;;;;;;9.45;69.85;99844.50;5065985;28;20131;-79
2023/04/13 06:43:39;;;;;;;0.10;0.10;;;;;;;9.43;69.72;99840.16;5072318;28;20104;-80
2023/04/13 06:46:05;;;;;;;0.10;0.10;;;;;;;9.35;69.79;99837.78;5063702;28;20028;-79
2023/04/13 06:48:31;;;;;;;0.35;0.35;;;;;;;9.42;69.71;99849.00;5073846;28;20043;-79
2023/04/13 06:50:58;;;;;;;0.10;0.10;;;;;;;9.50;70.25;99847.84;5073572;28;20115;-79
2023/04/13 06:53:24;;;;;;;0.10;0.10;;;;;;;9.58;70.54;99844.09;5067282;28;20028;-80
2023/04/13 06:55:51;;;;;;;0.85;0.85;;;;;;;9.68;70.47;99857.00;5070298;28;21285;-79
2023/04/13 06:58:17;;;;;;;0.10;0.10;;;;;;;9.83;70.29;99865.34;5064976;28;20549;-81
2023/04/13 07:00:43;;;;;;;0.00;0.00;;;;;;;9.81;70.28;99872.47;5066953;28;20487;-80
2023/04/13 07:03:09;;;;;;;0.10;0.10;;;;;;;9.73;70.42;99890.38;5066172;28;20107;-82
2023/04/13 07:05:35;;;;;;;0.75;0.75;;;;;;;9.95;69.86;99870.22;5065134;28;20024;-81
2023/04/13 07:08:01;;;;;;;0.10;0.10;;;;;;;10.00;69.83;99875.38;5069112;28;20033;-79
2023/04/13 07:10:27;;;;;;;0.68;0.68;;;;;;;9.99;70.13;99877.16;5070817;28;20097;-82
2023/04/13 07:12:54;;;;;;;0.10;0.10;;;;;;;10.00;70.14;99892.09;5067944;28;20147;-81
2023/04/13 07:15:20;;;;;;;0.10;0.10;;;;;;;9.93;69.99;99882.66;5064127;28;20029;-86
2023/04/13 07:17:46;;;;;;;0.10;0.10;;;;;;;9.94;69.65;99894.94;5070593;28;20481;-87
2023/04/13 07:20:12;;;;;;;0.10;0.10;;;;;;;10.07;69.67;99905.13;5064928;28;20036;-86
2023/04/13 07:22:38;;;;;;;0.10;0.10;;;;;;;10.18;68.91;99893.28;5062151;28;20097;-86
2023/04/13 07:25:05;;;;;;;0.10;0.10;;;;;;;10.26;69.02;99893.03;5070618;28;20028;-85
2023/04/13 07:27:32;;;;;;;0.10;0.10;;;;;;;10.35;68.39;99908.63;5066994;28;20028;-86
2023/04/13 07:29:59;;;;;;;0.30;0.30;;;;;;;10.28;68.14;99904.44;5069997;28;20040;-85
2023/04/13 07:32:26;;;;;;;0.10;0.10;;;;;;;10.40;68.21;99902.31;5068056;28;20085;-86
2023/04/13 07:34:52;;;;;;;1.45;1.15;;;;;;;10.36;66.95;99950.06;5073463;28;20030;-85
2023/04/13 07:37:18;;;;;;;0.10;0.10;;;;;;;10.50;66.72;99914.31;5075354;28;20036;-85
2023/04/13 07:39:44;;;;;;;0.10;0.10;;;;;;;10.59;66.14;99931.66;5069376;28;20493;-83
2023/04/13 07:42:11;;;;;;;0.10;0.10;;;;;;;10.49;65.47;99928.47;5067604;28;20046;-86
2023/04/13 07:44:37;;;;;;;0.10;0.10;;;;;;;10.65;65.72;99948.22;5064644;28;20107;-83
2023/04/13 07:47:03;;;;;;;0.10;0.10;;;;;;;10.44;64.56;99948.94;5063262;28;20082;-83
2023/04/13 07:49:29;;;;;;;0.10;0.10;;;;;;;10.61;64.13;99953.69;5072491;28;20058;-84
2023/04/13 07:51:57;;;;;;;0.08;0.08;;;;;;;10.61;64.02;99954.53;5071763;28;20035;-84
2023/04/13 07:54:23;;;;;;;0.10;0.10;;;;;;;10.72;63.57;99972.72;5071156;28;20131;-84
2023/04/13 07:56:49;;;;;;;0.10;0.10;;;;;;;10.83;62.87;99948.50;5067889;28;20075;-84
2023/04/13 07:59:15;;;;;;;0.20;0.20;;;;;;;10.77;61.78;99969.91;5072649;28;20033;-84
2023/04/13 08:01:41;;;;;;;0.10;0.10;;;;;;;10.76;61.63;99963.72;5062795;28;20043;-82
2023/04/13 08:04:07;;;;;;;0.10;0.10;;;;;;;10.84;61.31;99974.94;5060763;28;20040;-82
2023/04/13 08:06:45;;;;;;;0.10;0.10;;;;;;;10.84;61.56;99976.72;5068183;28;20028;-83
2023/04/13 08:09:11;;;;;;;4.47;2.83;;;;;;;10.77;61.85;99993.75;5073512;28;20039;-83
2023/04/13 08:11:37;;;;;;;0.03;0.03;;;;;;;10.76;62.56;99994.69;5070963;28;20024;-81
2023/04/13 08:14:03;;;;;;;0.10;0.10;;;;;;;10.68;62.60;100001.09;5073697;28;20394;-80
2023/04/13 08:16:33;;;;;;;0.10;0.10;;;;;;;10.67;62.06;99999.38;5061585;28;20064;-82
2023/04/13 08:19:00;;;;;;;0.10;0.10;;;;;;;10.66;61.27;100021.47;5074011;28;20122;-81
2023/04/13 08:21:28;;;;;;;0.10;0.10;;;;;;;10.63;60.73;100016.28;5073609;28;20107;-80
2023/04/13 08:23:55;;;;;;;0.03;0.03;;;;;;;10.65;60.91;100018.88;5072267;28;20115;-81
2023/04/13 08:26:21;;;;;;;0.10;0.10;;;;;;;10.86;61.57;100019.94;5068513;28;20568;-83
2023/04/13 08:29:10;;;;;;;0.10;0.10;;;;;;;11.14;60.69;100027.78;5059244;28;20512;-83
2023/04/13 08:31:36;;;;;;;0.13;0.13;;;;;;;11.07;59.19;100036.03;5056138;28;20024;-81
2023/04/13 08:34:03;;;;;;;0.10;0.10;;;;;;;11.29;60.01;100031.69;5069389;28;20061;-81
2023/04/13 08:36:30;;;;;;;0.10;0.10;;;;;;;11.27;58.70;100041.47;5071163;28;20024;-80
2023/04/13 08:38:56;;;;;;;0.10;0.10;;;;;;;11.27;58.44;100038.81;5071294;28;20028;-82
2023/04/13 08:41:24;;;;;;;0.10;0.10;;;;;;;11.46;58.97;100020.47;5070077;28;20035;-82
2023/04/13 08:43:51;;;;;;;1.65;0.90;;;;;;;11.69;59.15;100025.81;5072627;28;20028;-80
2023/04/13 08:46:19;;;;;;;0.00;0.00;;;;;;;11.59;57.29;100044.75;5069506;28;20177;-79
2023/04/13 08:48:47;;;;;;;0.03;0.03;;;;;;;11.75;57.64;100054.78;5067307;28;20394;-80
2023/04/13 08:51:14;;;;;;;0.10;0.10;;;;;;;11.81;57.01;100063.38;5066614;28;20115;-79
2023/04/13 08:53:40;;;;;;;0.10;0.10;;;;;;;11.77;56.47;100055.59;5069737;28;20029;-83
2023/04/13 08:56:09;;;;;;;0.10;0.10;;;;;;;11.81;56.84;100063.38;5065517;28;20056;-84
2023/04/13 08:58:41;;;;;;;0.00;0.00;;;;;;;11.87;56.99;100070.25;5073730;28;20052;-84
2023/04/13 09:01:12;;;;;;;0.20;0.20;;;;;;;11.79;56.72;100072.34;5075522;28;20108;-83
2023/04/13 09:03:51;;;;;;;0.10;0.10;;;;;;;12.07;56.93;100069.50;5075518;28;20451;-82
2023/04/13 09:06:27;;;;;;;0.10;0.10;;;;;;;12.11;56.65;100099.47;5072089;28;20028;-83
2023/04/13 09:08:55;;;;;;;0.55;0.55;;;;;;;12.08;55.00;100094.28;5068650;28;20048;-82
2023/04/13 09:11:21;;;;;;;0.10;0.10;;;;;;;11.95;54.42;100100.03;5067950;28;20021;-84
2023/04/13 09:13:49;;;;;;;0.10;0.10;;;;;;;11.96;54.14;100112.41;5069285;28;20110;-83
2023/04/13 09:16:17;;;;;;;0.10;0.10;;;;;;;11.93;53.62;100087.75;5063008;28;20029;-83
2023/04/13 09:18:52;;;;;;;0.10;0.10;;;;;;;11.85;52.78;100103.06;5067135;28;20052;-83
2023/04/13 09:21:18;;;;;;;0.10;0.10;;;;;;;12.04;52.55;100104.16;5068559;28;20413;-84
2023/04/13 09:24:00;;;;;;;3.08;1.45;;;;;;;12.23;53.77;100114.94;5065488;28;20071;-83
2023/04/13 09:26:26;;;;;;;0.10;0.10;;;;;;;12.23;52.98;100112.28;5068915;28;20111;-82
2023/04/13 09:28:55;;;;;;;0.20;0.20;;;;;;;12.33;53.26;100109.28;5068762;28;20446;-82
2023/04/13 09:31:21;;;;;;;0.10;0.10;;;;;;;12.28;52.60;100118.25;5068039;28;20767;-83
2023/04/13 09:33:50;;;;;;;0.10;0.10;;;;;;;12.39;51.87;100120.50;5075000;28;20033;-82
2023/04/13 09:36:19;;;;;;;0.10;0.10;;;;;;;12.38;53.03;100133.88;5067231;28;20035;-82
2023/04/13 09:38:51;;;;;;;0.10;0.10;;;;;;;12.27;52.40;100177.66;5070136;28;20432;-83
2023/04/13 09:41:29;;;;;;;0.45;0.45;;;;;;;12.31;52.81;100138.53;5076778;28;20119;-82
2023/04/13 09:43:55;;;;;;;0.10;0.10;;;;;;;12.11;52.76;100147.25;5068874;28;20097;-83
2023/04/13 09:46:21;;;;;;;0.10;0.10;;;;;;;12.27;52.65;100158.19;5071930;28;23093;-82
2023/04/13 09:48:58;;;;;;;0.10;0.10;;;;;;;12.34;52.49;100188.03;5074161;28;20056;-83
2023/04/13 09:51:26;;;;;;;0.25;0.25;;;;;;;12.38;53.05;100163.09;5071171;28;20790;-82
2023/04/13 09:53:52;;;;;;;0.10;0.10;;;;;;;12.46;52.06;100166.28;5067548;28;20029;-82
2023/04/13 09:56:19;;;;;;;0.10;0.10;;;;;;;12.59;52.71;100175.53;5069021;28;20024;-83
2023/04/13 09:58:46;;;;;;;0.20;0.20;;;;;;;12.67;52.81;100171.72;5071463;28;20116;-83
2023/04/13 10:01:14;;;;;;;0.10;0.10;;;;;;;12.79;51.98;100203.13;5068803;28;20032;-82
2023/04/13 10:03:42;;;;;;;0.10;0.10;;;;;;;12.97;51.36;100192.69;5069884;28;20405;-83
2023/04/13 10:06:08;;;;;;;1.48;1.42;;;;;;;12.92;50.55;100201.72;5075237;28;20139;-83
2023/04/13 10:08:39;;;;;;;0.10;0.10;;;;;;;13.01;50.98;100181.88;5072474;28;20072;-83
2023/04/13 10:11:10;;;;;;;0.15;0.15;;;;;;;12.97;50.46;100201.50;5068403;28;20028;-82
2023/04/13 10:13:48;;;;;;;0.20;0.20;;;;;;;12.99;49.83;100193.50;5075054;28;20047;-82
2023/04/13 10:16:41;;;;;;;0.00;0.00;;;;;;;12.97;49.68;100205.97;5062205;28;20029;-83
2023/04/13 10:19:14;;;;;;;2.45;2.30;;;;;;;13.07;50.39;100216.19;5075713;28;20031;-83
2023/04/13 10:21:44;;;;;;;0.10;0.10;;;;;;;13.07;50.59;100224.16;5081264;28;20390;-82
2023/04/13 10:24:12;;;;;;;0.10;0.10;;;;;;;13.33;50.44;100214.22;5087923;28;20016;-82
2023/04/13 10:26:39;;;;;;;0.10;0.10;;;;;;;13.47;49.54;100216.38;5082586;28;20036;-82
2023/04/13 10:29:07;;;;;;;0.10;0.10;;;;;;;13.65;48.74;100229.81;5075467;28;20028;-82
2023/04/13 10:31:36;;;;;;;1.40;0.98;;;;;;;13.68;48.70;100227.03;5069954;28;20086;-83
2023/04/13 10:34:04;;;;;;;0.10;0.10;;;;;;;13.78;48.52;100239.00;5069402;28;20099;-83
2023/04/13 10:36:45;;;;;;;1.55;1.38;;;;;;;13.71;47.78;100242.88;5077741;28;20090;-83
2023/04/13 10:39:23;;;;;;;0.10;0.10;;;;;;;13.76;47.83;100272.84;5064654;28;20071;-84
2023/04/13 10:42:11;;;;;;;0.10;0.10;;;;;;;13.61;48.26;100278.78;5071832;28;20048;-84
2023/04/13 10:44:53;;;;;;;0.10;0.10;;;;;;;13.37;49.02;100277.09;5070798;28;20390;-84
2023/04/13 10:47:21;;;;;;;0.20;0.20;;;;;;;13.53;47.82;100269.34;5070032;28;20044;-84
2023/04/13 10:49:49;;;;;;;0.10;0.10;;;;;;;13.53;47.50;100263.13;5068196;28;20494;-83
2023/04/13 10:52:15;;;;;;;0.10;0.10;;;;;;;13.57;47.65;100265.63;5071036;28;20032;-83
2023/04/13 10:54:43;;;;;;;0.00;0.00;;;;;;;13.48;48.25;100287.28;5072620;28;20042;-83
2023/04/13 10:57:10;;;;;;;0.10;0.10;;;;;;;13.22;48.02;100286.53;5072036;28;20032;-83
2023/04/13 10:59:40;;;;;;;0.10;0.10;;;;;;;13.34;48.39;100298.44;5065295;28;20033;-83
2023/04/13 11:02:11;;;;;;;0.10;0.10;;;;;;;13.29;48.42;100302.25;5067493;28;20032;-81
2023/04/13 11:04:38;;;;;;;0.10;0.10;;;;;;;13.43;48.74;100305.22;5063718;28;20037;-81
2023/04/13 11:07:06;;;;;;;0.10;0.10;;;;;;;13.32;48.92;100310.97;5071145;28;20520;-81
2023/04/13 11:09:33;;;;;;;0.25;0.25;;;;;;;13.29;49.00;100318.19;5072621;28;20079;-81
2023/04/13 11:11:59;;;;;;;0.20;0.20;;;;;;;13.18;48.63;100305.31;5080049;28;20039;-81
2023/04/13 11:14:25;;;;;;;0.10;0.10;;;;;;;13.25;49.40;100307.66;5071542;28;20039;-82
2023/04/13 11:16:51;;;;;;;0.10;0.10;;;;;;;13.25;49.17;100310.31;5068693;28;20040;-81
2023/04/13 11:19:17;;;;;;;0.10;0.10;;;;;;;13.22;48.73;100305.16;5068415;28;20073;-81
2023/04/13 11:21:44;;;;;;;0.10;0.10;;;;;;;13.34;48.59;100313.56;5066372;28;20508;-79
2023/04/13 11:24:11;;;;;;;0.10;0.10;;;;;;;13.34;48.57;100318.88;5066506;28;20109;-83
2023/04/13 11:26:37;;;;;;;0.10;0.10;;;;;;;13.41;48.05;100329.25;5068933;28;20029;-82
2023/04/13 11:29:03;;;;;;;0.10;0.10;;;;;;;13.33;48.62;100325.97;5071219;28;20065;-82
2023/04/13 11:31:39;;;;;;;2.83;1.13;;;;;;;13.43;48.29;100327.41;5063026;28;20033;-87
2023/04/13 11:34:11;;;;;;;0.35;0.35;;;;;;;13.53;48.51;100341.22;5068131;28;20100;-82
2023/04/13 11:36:39;;;;;;;0.10;0.10;;;;;;;13.64;48.58;100332.75;5067014;28;20094;-84
2023/04/13 11:39:08;;;;;;;0.10;0.10;;;;;;;13.81;48.37;100342.72;5074643;28;20051;-83
2023/04/13 11:41:42;;;;;;;0.10;0.10;;;;;;;13.71;47.55;100358.22;5071948;28;20040;-81
2023/04/13 11:44:12;;;;;;;0.10;0.10;;;;;;;13.78;48.08;100357.97;5068364;28;20036;-81